sensor_id;sensor_type;location;lat;lon;timestamp;P1;durP1;ratioP1;P2;durP2;ratioP2
31798;SDS011;18374;51.136;3.502;2022-09-09T00:00:12;4.57;;;1.85;;
31798;SDS011;18374;51.136;3.502;2022-09-09T00:02:48;8.80;;;1.98;;
31798;SDS011;18374;51.136;3.502;2022-09-09T00:05:37;8.70;;;2.25;;
31798;SDS011;18374;51.136;3.502;2022-09-09T00:08:41;7.57;;;2.53;;
31798;SDS011;18374;51.136;3.502;2022-09-09T00:11:26;5.20;;;2.50;;
31798;SDS011;18374;51.136;3.502;2022-09-09T00:14:08;6.32;;;2.83;;
31798;SDS011;18374;51.136;3.502;2022-09-09T00:16:47;7.40;;;2.20;;
31798;SDS011;18374;51.136;3.502;2022-09-09T00:19:23;4.63;;;1.98;;
31798;SDS011;18374;51.136;3.502;2022-09-09T00:24:46;9.43;;;1.73;;
31798;SDS011;18374;51.136;3.502;2022-09-09T00:29:52;4.47;;;2.08;;
31798;SDS011;18374;51.136;3.502;2022-09-09T00:32:27;4.82;;;2.40;;
31798;SDS011;18374;51.136;3.502;2022-09-09T00:35:02;3.90;;;1.80;;
31798;SDS011;18374;51.136;3.502;2022-09-09T00:37:46;6.68;;;1.80;;
31798;SDS011;18374;51.136;3.502;2022-09-09T00:40:23;4.82;;;1.63;;
31798;SDS011;18374;51.136;3.502;2022-09-09T00:46:04;5.40;;;2.03;;
31798;SDS011;18374;51.136;3.502;2022-09-09T00:52:07;10.25;;;1.80;;
31798;SDS011;18374;51.136;3.502;2022-09-09T00:55:10;5.53;;;1.52;;
31798;SDS011;18374;51.136;3.502;2022-09-09T00:57:49;3.35;;;1.40;;
31798;SDS011;18374;51.136;3.502;2022-09-09T01:05:37;11.98;;;1.58;;
31798;SDS011;18374;51.136;3.502;2022-09-09T01:08:22;2.65;;;1.48;;
31798;SDS011;18374;51.136;3.502;2022-09-09T01:11:49;4.05;;;1.58;;
31798;SDS011;18374;51.136;3.502;2022-09-09T01:14:50;3.30;;;1.30;;
31798;SDS011;18374;51.136;3.502;2022-09-09T01:17:27;4.03;;;1.63;;
31798;SDS011;18374;51.136;3.502;2022-09-09T01:20:21;4.47;;;1.50;;
31798;SDS011;18374;51.136;3.502;2022-09-09T01:29:09;5.13;;;1.38;;
31798;SDS011;18374;51.136;3.502;2022-09-09T01:31:56;10.63;;;1.50;;
31798;SDS011;18374;51.136;3.502;2022-09-09T01:34:30;4.53;;;1.20;;
31798;SDS011;18374;51.136;3.502;2022-09-09T01:37:04;4.55;;;1.20;;
31798;SDS011;18374;51.136;3.502;2022-09-09T01:39:37;4.13;;;1.38;;
31798;SDS011;18374;51.136;3.502;2022-09-09T01:42:12;3.83;;;1.45;;
31798;SDS011;18374;51.136;3.502;2022-09-09T01:44:42;3.40;;;1.20;;
31798;SDS011;18374;51.136;3.502;2022-09-09T01:47:10;7.80;;;1.60;;
31798;SDS011;18374;51.136;3.502;2022-09-09T01:49:54;3.05;;;1.33;;
31798;SDS011;18374;51.136;3.502;2022-09-09T01:52:25;4.22;;;1.10;;
31798;SDS011;18374;51.136;3.502;2022-09-09T01:54:54;5.72;;;1.30;;
31798;SDS011;18374;51.136;3.502;2022-09-09T01:58:01;3.08;;;0.93;;
31798;SDS011;18374;51.136;3.502;2022-09-09T02:01:00;6.70;;;1.98;;
31798;SDS011;18374;51.136;3.502;2022-09-09T02:04:21;6.18;;;1.55;;
31798;SDS011;18374;51.136;3.502;2022-09-09T02:07:20;5.72;;;1.60;;
31798;SDS011;18374;51.136;3.502;2022-09-09T02:10:03;14.60;;;2.40;;
31798;SDS011;18374;51.136;3.502;2022-09-09T02:12:48;4.85;;;1.25;;
31798;SDS011;18374;51.136;3.502;2022-09-09T02:16:04;5.35;;;1.70;;
31798;SDS011;18374;51.136;3.502;2022-09-09T02:18:57;9.10;;;1.73;;
31798;SDS011;18374;51.136;3.502;2022-09-09T02:21:47;5.88;;;1.52;;
31798;SDS011;18374;51.136;3.502;2022-09-09T02:24:15;4.18;;;1.63;;
31798;SDS011;18374;51.136;3.502;2022-09-09T02:26:51;8.10;;;1.80;;
31798;SDS011;18374;51.136;3.502;2022-09-09T02:29:23;6.00;;;1.30;;
31798;SDS011;18374;51.136;3.502;2022-09-09T02:31:58;7.25;;;1.48;;
31798;SDS011;18374;51.136;3.502;2022-09-09T02:34:35;5.47;;;1.58;;
31798;SDS011;18374;51.136;3.502;2022-09-09T02:37:07;4.47;;;1.30;;
31798;SDS011;18374;51.136;3.502;2022-09-09T02:39:41;2.92;;;1.58;;
31798;SDS011;18374;51.136;3.502;2022-09-09T02:42:12;5.75;;;1.58;;
31798;SDS011;18374;51.136;3.502;2022-09-09T02:44:43;10.05;;;1.65;;
31798;SDS011;18374;51.136;3.502;2022-09-09T02:47:24;5.32;;;1.70;;
31798;SDS011;18374;51.136;3.502;2022-09-09T02:55:46;6.20;;;1.80;;
31798;SDS011;18374;51.136;3.502;2022-09-09T02:58:20;7.03;;;1.60;;
31798;SDS011;18374;51.136;3.502;2022-09-09T03:01:00;7.70;;;1.88;;
31798;SDS011;18374;51.136;3.502;2022-09-09T03:03:30;5.95;;;2.13;;
31798;SDS011;18374;51.136;3.502;2022-09-09T03:06:02;8.27;;;2.08;;
31798;SDS011;18374;51.136;3.502;2022-09-09T03:08:30;7.90;;;1.70;;
31798;SDS011;18374;51.136;3.502;2022-09-09T03:10:59;9.80;;;1.70;;
31798;SDS011;18374;51.136;3.502;2022-09-09T03:13:30;6.65;;;1.60;;
31798;SDS011;18374;51.136;3.502;2022-09-09T03:15:58;7.32;;;1.95;;
31798;SDS011;18374;51.136;3.502;2022-09-09T03:18:29;9.07;;;1.95;;
31798;SDS011;18374;51.136;3.502;2022-09-09T03:20:57;5.78;;;1.42;;
31798;SDS011;18374;51.136;3.502;2022-09-09T03:23:27;8.88;;;2.00;;
31798;SDS011;18374;51.136;3.502;2022-09-09T03:25:56;12.35;;;1.90;;
31798;SDS011;18374;51.136;3.502;2022-09-09T03:28:34;6.15;;;1.88;;
31798;SDS011;18374;51.136;3.502;2022-09-09T03:31:03;9.55;;;2.45;;
31798;SDS011;18374;51.136;3.502;2022-09-09T03:33:37;7.70;;;1.80;;
31798;SDS011;18374;51.136;3.502;2022-09-09T03:36:08;6.03;;;1.33;;
31798;SDS011;18374;51.136;3.502;2022-09-09T03:38:37;8.80;;;2.15;;
31798;SDS011;18374;51.136;3.502;2022-09-09T03:41:06;5.13;;;1.73;;
31798;SDS011;18374;51.136;3.502;2022-09-09T03:43:35;8.25;;;1.52;;
31798;SDS011;18374;51.136;3.502;2022-09-09T03:46:03;13.75;;;2.47;;
31798;SDS011;18374;51.136;3.502;2022-09-09T03:48:31;10.32;;;2.15;;
31798;SDS011;18374;51.136;3.502;2022-09-09T03:51:00;4.43;;;1.63;;
31798;SDS011;18374;51.136;3.502;2022-09-09T03:53:30;7.65;;;1.92;;
31798;SDS011;18374;51.136;3.502;2022-09-09T03:55:59;7.75;;;1.88;;
31798;SDS011;18374;51.136;3.502;2022-09-09T03:58:29;6.22;;;1.90;;
31798;SDS011;18374;51.136;3.502;2022-09-09T04:01:05;10.43;;;1.95;;
31798;SDS011;18374;51.136;3.502;2022-09-09T04:03:38;8.00;;;1.73;;
31798;SDS011;18374;51.136;3.502;2022-09-09T04:06:09;9.82;;;1.98;;
31798;SDS011;18374;51.136;3.502;2022-09-09T04:08:40;7.07;;;1.92;;
31798;SDS011;18374;51.136;3.502;2022-09-09T04:11:09;9.52;;;2.10;;
31798;SDS011;18374;51.136;3.502;2022-09-09T04:13:38;12.13;;;2.25;;
31798;SDS011;18374;51.136;3.502;2022-09-09T04:16:09;4.97;;;1.80;;
31798;SDS011;18374;51.136;3.502;2022-09-09T04:18:41;10.18;;;2.30;;
31798;SDS011;18374;51.136;3.502;2022-09-09T04:21:09;13.35;;;2.60;;
31798;SDS011;18374;51.136;3.502;2022-09-09T04:23:40;7.65;;;2.33;;
31798;SDS011;18374;51.136;3.502;2022-09-09T04:26:08;11.50;;;2.35;;
31798;SDS011;18374;51.136;3.502;2022-09-09T04:28:36;11.55;;;2.72;;
31798;SDS011;18374;51.136;3.502;2022-09-09T04:31:14;11.23;;;2.38;;
31798;SDS011;18374;51.136;3.502;2022-09-09T04:33:52;13.82;;;3.15;;
31798;SDS011;18374;51.136;3.502;2022-09-09T04:36:21;9.77;;;2.33;;
31798;SDS011;18374;51.136;3.502;2022-09-09T04:38:53;12.45;;;2.97;;
31798;SDS011;18374;51.136;3.502;2022-09-09T04:41:21;10.25;;;2.33;;
31798;SDS011;18374;51.136;3.502;2022-09-09T04:44:16;11.27;;;2.53;;
31798;SDS011;18374;51.136;3.502;2022-09-09T04:46:44;12.00;;;2.88;;
31798;SDS011;18374;51.136;3.502;2022-09-09T04:49:12;10.38;;;2.45;;
31798;SDS011;18374;51.136;3.502;2022-09-09T04:51:42;11.73;;;2.40;;
31798;SDS011;18374;51.136;3.502;2022-09-09T04:54:10;18.55;;;3.55;;
31798;SDS011;18374;51.136;3.502;2022-09-09T04:56:43;12.25;;;2.55;;
31798;SDS011;18374;51.136;3.502;2022-09-09T04:59:11;14.73;;;2.38;;
31798;SDS011;18374;51.136;3.502;2022-09-09T05:01:44;9.00;;;2.22;;
31798;SDS011;18374;51.136;3.502;2022-09-09T05:04:12;12.23;;;2.47;;
31798;SDS011;18374;51.136;3.502;2022-09-09T05:06:43;16.20;;;2.90;;
31798;SDS011;18374;51.136;3.502;2022-09-09T05:09:12;9.77;;;2.33;;
31798;SDS011;18374;51.136;3.502;2022-09-09T05:11:39;12.27;;;2.53;;
31798;SDS011;18374;51.136;3.502;2022-09-09T05:14:14;11.35;;;2.72;;
31798;SDS011;18374;51.136;3.502;2022-09-09T05:16:44;10.65;;;2.63;;
31798;SDS011;18374;51.136;3.502;2022-09-09T05:19:12;12.55;;;2.70;;
31798;SDS011;18374;51.136;3.502;2022-09-09T05:21:44;14.10;;;2.75;;
31798;SDS011;18374;51.136;3.502;2022-09-09T05:24:14;12.10;;;2.63;;
31798;SDS011;18374;51.136;3.502;2022-09-09T05:26:45;10.38;;;2.67;;
31798;SDS011;18374;51.136;3.502;2022-09-09T05:29:13;13.32;;;2.78;;
31798;SDS011;18374;51.136;3.502;2022-09-09T05:31:41;11.32;;;2.88;;
31798;SDS011;18374;51.136;3.502;2022-09-09T05:34:13;12.57;;;4.05;;
31798;SDS011;18374;51.136;3.502;2022-09-09T05:36:41;11.75;;;2.63;;
31798;SDS011;18374;51.136;3.502;2022-09-09T05:39:09;9.80;;;3.05;;
31798;SDS011;18374;51.136;3.502;2022-09-09T05:41:38;16.80;;;3.15;;
31798;SDS011;18374;51.136;3.502;2022-09-09T05:44:08;17.45;;;3.10;;
31798;SDS011;18374;51.136;3.502;2022-09-09T05:46:38;17.35;;;3.50;;
31798;SDS011;18374;51.136;3.502;2022-09-09T05:49:06;15.00;;;3.28;;
31798;SDS011;18374;51.136;3.502;2022-09-09T05:51:35;16.17;;;3.65;;
31798;SDS011;18374;51.136;3.502;2022-09-09T05:54:09;11.25;;;2.47;;
31798;SDS011;18374;51.136;3.502;2022-09-09T05:56:42;10.18;;;2.85;;
31798;SDS011;18374;51.136;3.502;2022-09-09T05:59:12;12.57;;;3.13;;
31798;SDS011;18374;51.136;3.502;2022-09-09T06:01:41;16.42;;;3.30;;
31798;SDS011;18374;51.136;3.502;2022-09-09T06:04:18;14.90;;;4.22;;
31798;SDS011;18374;51.136;3.502;2022-09-09T06:06:52;13.07;;;3.10;;
31798;SDS011;18374;51.136;3.502;2022-09-09T06:09:22;8.60;;;2.85;;
31798;SDS011;18374;51.136;3.502;2022-09-09T06:11:49;9.40;;;3.00;;
31798;SDS011;18374;51.136;3.502;2022-09-09T06:14:19;16.88;;;4.70;;
31798;SDS011;18374;51.136;3.502;2022-09-09T06:16:48;15.05;;;3.20;;
31798;SDS011;18374;51.136;3.502;2022-09-09T06:19:20;14.20;;;3.10;;
31798;SDS011;18374;51.136;3.502;2022-09-09T06:21:48;16.02;;;3.17;;
31798;SDS011;18374;51.136;3.502;2022-09-09T06:24:17;17.35;;;3.10;;
31798;SDS011;18374;51.136;3.502;2022-09-09T06:26:46;22.17;;;3.60;;
31798;SDS011;18374;51.136;3.502;2022-09-09T06:29:21;17.33;;;4.10;;
31798;SDS011;18374;51.136;3.502;2022-09-09T06:31:50;14.82;;;3.13;;
31798;SDS011;18374;51.136;3.502;2022-09-09T06:34:23;13.45;;;3.50;;
31798;SDS011;18374;51.136;3.502;2022-09-09T06:36:54;15.15;;;4.13;;
31798;SDS011;18374;51.136;3.502;2022-09-09T06:39:27;10.40;;;2.40;;
31798;SDS011;18374;51.136;3.502;2022-09-09T06:41:55;9.93;;;2.85;;
31798;SDS011;18374;51.136;3.502;2022-09-09T06:44:51;13.02;;;3.22;;
31798;SDS011;18374;51.136;3.502;2022-09-09T06:47:33;17.95;;;2.80;;
31798;SDS011;18374;51.136;3.502;2022-09-09T06:50:04;9.38;;;2.78;;
31798;SDS011;18374;51.136;3.502;2022-09-09T06:52:35;13.80;;;3.13;;
31798;SDS011;18374;51.136;3.502;2022-09-09T06:55:03;8.95;;;3.20;;
31798;SDS011;18374;51.136;3.502;2022-09-09T06:57:33;18.15;;;3.55;;
31798;SDS011;18374;51.136;3.502;2022-09-09T07:00:07;10.20;;;2.85;;
31798;SDS011;18374;51.136;3.502;2022-09-09T07:02:36;12.93;;;3.08;;
31798;SDS011;18374;51.136;3.502;2022-09-09T07:05:07;8.95;;;2.95;;
31798;SDS011;18374;51.136;3.502;2022-09-09T07:07:40;15.15;;;3.53;;
31798;SDS011;18374;51.136;3.502;2022-09-09T07:10:12;9.30;;;3.22;;
31798;SDS011;18374;51.136;3.502;2022-09-09T07:12:40;13.10;;;3.08;;
31798;SDS011;18374;51.136;3.502;2022-09-09T07:15:10;14.48;;;3.13;;
31798;SDS011;18374;51.136;3.502;2022-09-09T07:17:42;9.93;;;2.92;;
31798;SDS011;18374;51.136;3.502;2022-09-09T07:20:10;13.75;;;3.58;;
31798;SDS011;18374;51.136;3.502;2022-09-09T07:22:42;14.07;;;3.72;;
31798;SDS011;18374;51.136;3.502;2022-09-09T07:25:12;11.15;;;2.80;;
31798;SDS011;18374;51.136;3.502;2022-09-09T07:27:41;12.15;;;3.33;;
31798;SDS011;18374;51.136;3.502;2022-09-09T07:30:09;12.25;;;3.38;;
31798;SDS011;18374;51.136;3.502;2022-09-09T07:32:44;7.83;;;2.97;;
31798;SDS011;18374;51.136;3.502;2022-09-09T07:35:11;11.38;;;3.17;;
31798;SDS011;18374;51.136;3.502;2022-09-09T07:37:39;9.32;;;2.97;;
31798;SDS011;18374;51.136;3.502;2022-09-09T07:40:08;11.00;;;2.88;;
31798;SDS011;18374;51.136;3.502;2022-09-09T07:42:37;10.35;;;2.78;;
31798;SDS011;18374;51.136;3.502;2022-09-09T07:45:05;15.45;;;3.38;;
31798;SDS011;18374;51.136;3.502;2022-09-09T07:47:33;10.70;;;2.60;;
31798;SDS011;18374;51.136;3.502;2022-09-09T07:50:02;11.00;;;3.30;;
31798;SDS011;18374;51.136;3.502;2022-09-09T07:52:33;9.27;;;2.97;;
31798;SDS011;18374;51.136;3.502;2022-09-09T07:55:07;7.35;;;2.40;;
31798;SDS011;18374;51.136;3.502;2022-09-09T07:57:36;9.02;;;2.33;;
31798;SDS011;18374;51.136;3.502;2022-09-09T08:00:04;15.88;;;2.75;;
31798;SDS011;18374;51.136;3.502;2022-09-09T08:02:41;8.38;;;2.45;;
31798;SDS011;18374;51.136;3.502;2022-09-09T08:05:10;7.95;;;2.78;;
31798;SDS011;18374;51.136;3.502;2022-09-09T08:07:39;11.82;;;3.03;;
31798;SDS011;18374;51.136;3.502;2022-09-09T08:10:07;12.32;;;2.75;;
31798;SDS011;18374;51.136;3.502;2022-09-09T08:12:37;11.18;;;2.97;;
31798;SDS011;18374;51.136;3.502;2022-09-09T08:15:11;13.65;;;2.88;;
31798;SDS011;18374;51.136;3.502;2022-09-09T08:17:40;9.40;;;2.47;;
31798;SDS011;18374;51.136;3.502;2022-09-09T08:20:08;10.75;;;2.58;;
31798;SDS011;18374;51.136;3.502;2022-09-09T08:22:36;13.40;;;2.53;;
31798;SDS011;18374;51.136;3.502;2022-09-09T08:25:04;10.77;;;2.90;;
31798;SDS011;18374;51.136;3.502;2022-09-09T08:27:35;10.70;;;3.05;;
31798;SDS011;18374;51.136;3.502;2022-09-09T08:30:04;11.98;;;2.95;;
31798;SDS011;18374;51.136;3.502;2022-09-09T08:32:32;11.30;;;2.90;;
31798;SDS011;18374;51.136;3.502;2022-09-09T08:35:02;14.13;;;2.60;;
31798;SDS011;18374;51.136;3.502;2022-09-09T08:37:34;8.57;;;2.78;;
31798;SDS011;18374;51.136;3.502;2022-09-09T08:40:02;13.07;;;3.00;;
31798;SDS011;18374;51.136;3.502;2022-09-09T08:45:14;9.82;;;3.25;;
31798;SDS011;18374;51.136;3.502;2022-09-09T08:51:04;8.57;;;2.88;;
31798;SDS011;18374;51.136;3.502;2022-09-09T08:53:46;6.25;;;2.58;;
31798;SDS011;18374;51.136;3.502;2022-09-09T08:56:23;8.27;;;2.45;;
31798;SDS011;18374;51.136;3.502;2022-09-09T08:58:55;12.00;;;3.03;;
31798;SDS011;18374;51.136;3.502;2022-09-09T09:01:53;10.55;;;2.47;;
31798;SDS011;18374;51.136;3.502;2022-09-09T09:05:27;5.93;;;2.42;;
31798;SDS011;18374;51.136;3.502;2022-09-09T09:11:01;12.05;;;2.90;;
31798;SDS011;18374;51.136;3.502;2022-09-09T09:13:34;6.93;;;2.35;;
31798;SDS011;18374;51.136;3.502;2022-09-09T09:18:51;4.57;;;2.13;;
31798;SDS011;18374;51.136;3.502;2022-09-09T09:21:21;8.07;;;2.72;;
31798;SDS011;18374;51.136;3.502;2022-09-09T09:24:04;6.57;;;2.63;;
31798;SDS011;18374;51.136;3.502;2022-09-09T09:30:25;7.32;;;2.88;;
31798;SDS011;18374;51.136;3.502;2022-09-09T09:33:25;6.95;;;2.60;;
31798;SDS011;18374;51.136;3.502;2022-09-09T09:36:18;4.78;;;2.50;;
31798;SDS011;18374;51.136;3.502;2022-09-09T09:38:55;5.18;;;2.30;;
31798;SDS011;18374;51.136;3.502;2022-09-09T09:41:51;5.63;;;2.00;;
31798;SDS011;18374;51.136;3.502;2022-09-09T09:44:26;4.75;;;2.53;;
31798;SDS011;18374;51.136;3.502;2022-09-09T09:49:51;5.88;;;2.88;;
31798;SDS011;18374;51.136;3.502;2022-09-09T09:52:23;6.35;;;2.40;;
31798;SDS011;18374;51.136;3.502;2022-09-09T09:54:57;6.38;;;2.50;;
31798;SDS011;18374;51.136;3.502;2022-09-09T09:57:33;11.05;;;3.15;;
31798;SDS011;18374;51.136;3.502;2022-09-09T10:00:14;7.97;;;2.40;;
31798;SDS011;18374;51.136;3.502;2022-09-09T10:03:12;7.60;;;2.60;;
31798;SDS011;18374;51.136;3.502;2022-09-09T10:05:51;7.22;;;2.35;;
31798;SDS011;18374;51.136;3.502;2022-09-09T10:08:19;5.65;;;2.63;;
31798;SDS011;18374;51.136;3.502;2022-09-09T10:17:11;5.55;;;2.50;;
31798;SDS011;18374;51.136;3.502;2022-09-09T10:26:13;4.43;;;2.13;;
31798;SDS011;18374;51.136;3.502;2022-09-09T10:29:30;5.03;;;1.90;;
31798;SDS011;18374;51.136;3.502;2022-09-09T10:32:16;5.05;;;1.95;;
31798;SDS011;18374;51.136;3.502;2022-09-09T10:38:42;3.15;;;1.60;;
31798;SDS011;18374;51.136;3.502;2022-09-09T10:41:42;6.25;;;2.05;;
31798;SDS011;18374;51.136;3.502;2022-09-09T10:50:14;6.03;;;1.70;;
31798;SDS011;18374;51.136;3.502;2022-09-09T10:53:21;4.63;;;1.83;;
31798;SDS011;18374;51.136;3.502;2022-09-09T10:56:25;3.28;;;1.70;;
31798;SDS011;18374;51.136;3.502;2022-09-09T10:59:33;7.43;;;1.92;;
31798;SDS011;18374;51.136;3.502;2022-09-09T11:07:49;4.63;;;1.70;;
31798;SDS011;18374;51.136;3.502;2022-09-09T11:10:29;8.07;;;1.98;;
31798;SDS011;18374;51.136;3.502;2022-09-09T11:13:11;3.13;;;1.67;;
31798;SDS011;18374;51.136;3.502;2022-09-09T11:15:52;5.93;;;1.88;;
31798;SDS011;18374;51.136;3.502;2022-09-09T11:18:28;4.38;;;1.75;;
31798;SDS011;18374;51.136;3.502;2022-09-09T11:20:59;5.47;;;1.92;;
31798;SDS011;18374;51.136;3.502;2022-09-09T11:23:34;3.47;;;1.70;;
31798;SDS011;18374;51.136;3.502;2022-09-09T11:26:30;5.90;;;1.58;;
31798;SDS011;18374;51.136;3.502;2022-09-09T11:29:50;6.38;;;1.70;;
31798;SDS011;18374;51.136;3.502;2022-09-09T11:40:55;2.95;;;1.67;;
31798;SDS011;18374;51.136;3.502;2022-09-09T11:43:32;3.80;;;1.77;;
31798;SDS011;18374;51.136;3.502;2022-09-09T11:46:08;5.05;;;1.70;;
31798;SDS011;18374;51.136;3.502;2022-09-09T11:48:38;2.97;;;1.60;;
31798;SDS011;18374;51.136;3.502;2022-09-09T11:51:26;3.22;;;1.55;;
31798;SDS011;18374;51.136;3.502;2022-09-09T11:53:58;4.00;;;1.67;;
31798;SDS011;18374;51.136;3.502;2022-09-09T11:59:35;4.55;;;2.00;;
31798;SDS011;18374;51.136;3.502;2022-09-09T12:01:59;5.82;;;1.90;;
31798;SDS011;18374;51.136;3.502;2022-09-09T12:05:25;7.55;;;1.90;;
31798;SDS011;18374;51.136;3.502;2022-09-09T12:07:36;9.35;;;2.30;;
31798;SDS011;18374;51.136;3.502;2022-09-09T12:13:15;3.95;;;1.70;;
31798;SDS011;18374;51.136;3.502;2022-09-09T12:15:47;5.93;;;2.03;;
31798;SDS011;18374;51.136;3.502;2022-09-09T12:18:31;10.70;;;1.85;;
31798;SDS011;18374;51.136;3.502;2022-09-09T12:27:08;9.73;;;2.53;;
31798;SDS011;18374;51.136;3.502;2022-09-09T12:30:03;8.55;;;2.78;;
31798;SDS011;18374;51.136;3.502;2022-09-09T12:33:21;5.43;;;2.70;;
31798;SDS011;18374;51.136;3.502;2022-09-09T12:35:56;8.75;;;2.70;;
31798;SDS011;18374;51.136;3.502;2022-09-09T12:41:24;7.30;;;2.90;;
31798;SDS011;18374;51.136;3.502;2022-09-09T12:44:04;4.45;;;2.13;;
31798;SDS011;18374;51.136;3.502;2022-09-09T12:49:28;5.18;;;1.95;;
31798;SDS011;18374;51.136;3.502;2022-09-09T12:52:16;4.80;;;2.05;;
31798;SDS011;18374;51.136;3.502;2022-09-09T12:55:06;7.90;;;2.40;;
31798;SDS011;18374;51.136;3.502;2022-09-09T12:57:36;11.73;;;2.58;;
31798;SDS011;18374;51.136;3.502;2022-09-09T13:00:19;5.75;;;2.58;;
31798;SDS011;18374;51.136;3.502;2022-09-09T13:02:52;4.28;;;2.08;;
31798;SDS011;18374;51.136;3.502;2022-09-09T13:05:26;8.95;;;2.20;;
31798;SDS011;18374;51.136;3.502;2022-09-09T13:08:19;4.03;;;1.83;;
31798;SDS011;18374;51.136;3.502;2022-09-09T13:10:51;4.60;;;2.17;;
31798;SDS011;18374;51.136;3.502;2022-09-09T13:13:30;6.60;;;2.10;;
31798;SDS011;18374;51.136;3.502;2022-09-09T13:16:05;5.32;;;2.22;;
31798;SDS011;18374;51.136;3.502;2022-09-09T13:19:13;4.05;;;2.20;;
31798;SDS011;18374;51.136;3.502;2022-09-09T13:21:43;4.65;;;2.35;;
31798;SDS011;18374;51.136;3.502;2022-09-09T13:24:25;3.13;;;2.20;;
31798;SDS011;18374;51.136;3.502;2022-09-09T13:27:02;9.70;;;3.15;;
31798;SDS011;18374;51.136;3.502;2022-09-09T13:29:51;9.63;;;3.25;;
31798;SDS011;18374;51.136;3.502;2022-09-09T13:32:24;18.67;;;4.72;;
31798;SDS011;18374;51.136;3.502;2022-09-09T13:35:00;13.45;;;4.60;;
31798;SDS011;18374;51.136;3.502;2022-09-09T13:37:33;13.07;;;4.47;;
31798;SDS011;18374;51.136;3.502;2022-09-09T13:40:04;6.80;;;2.90;;
31798;SDS011;18374;51.136;3.502;2022-09-09T13:42:35;5.90;;;2.00;;
31798;SDS011;18374;51.136;3.502;2022-09-09T13:45:19;5.55;;;2.35;;
31798;SDS011;18374;51.136;3.502;2022-09-09T13:47:50;10.15;;;2.60;;
31798;SDS011;18374;51.136;3.502;2022-09-09T13:50:24;7.53;;;2.45;;
31798;SDS011;18374;51.136;3.502;2022-09-09T13:52:57;6.22;;;2.38;;
31798;SDS011;18374;51.136;3.502;2022-09-09T13:55:26;10.30;;;3.65;;
31798;SDS011;18374;51.136;3.502;2022-09-09T13:57:59;10.80;;;3.50;;
31798;SDS011;18374;51.136;3.502;2022-09-09T14:00:30;9.40;;;3.42;;
31798;SDS011;18374;51.136;3.502;2022-09-09T14:03:01;6.18;;;3.10;;
31798;SDS011;18374;51.136;3.502;2022-09-09T14:05:39;8.50;;;2.33;;
31798;SDS011;18374;51.136;3.502;2022-09-09T14:08:07;5.05;;;2.15;;
31798;SDS011;18374;51.136;3.502;2022-09-09T14:10:51;3.97;;;2.10;;
31798;SDS011;18374;51.136;3.502;2022-09-09T14:13:22;5.07;;;2.70;;
31798;SDS011;18374;51.136;3.502;2022-09-09T14:15:49;10.77;;;3.17;;
31798;SDS011;18374;51.136;3.502;2022-09-09T14:18:17;6.85;;;3.30;;
31798;SDS011;18374;51.136;3.502;2022-09-09T14:20:45;9.52;;;2.70;;
31798;SDS011;18374;51.136;3.502;2022-09-09T14:23:13;7.22;;;2.88;;
31798;SDS011;18374;51.136;3.502;2022-09-09T14:25:42;4.07;;;2.67;;
31798;SDS011;18374;51.136;3.502;2022-09-09T14:28:11;6.53;;;2.90;;
31798;SDS011;18374;51.136;3.502;2022-09-09T14:30:41;9.73;;;3.40;;
31798;SDS011;18374;51.136;3.502;2022-09-09T14:33:12;7.72;;;3.70;;
31798;SDS011;18374;51.136;3.502;2022-09-09T14:35:42;3.78;;;2.50;;
31798;SDS011;18374;51.136;3.502;2022-09-09T14:38:11;8.90;;;2.90;;
31798;SDS011;18374;51.136;3.502;2022-09-09T14:40:44;8.52;;;2.80;;
31798;SDS011;18374;51.136;3.502;2022-09-09T14:43:13;6.10;;;3.47;;
31798;SDS011;18374;51.136;3.502;2022-09-09T14:45:41;8.95;;;3.53;;
31798;SDS011;18374;51.136;3.502;2022-09-09T14:48:10;8.75;;;3.97;;
31798;SDS011;18374;51.136;3.502;2022-09-09T14:50:38;10.32;;;4.25;;
31798;SDS011;18374;51.136;3.502;2022-09-09T14:53:07;8.82;;;4.13;;
31798;SDS011;18374;51.136;3.502;2022-09-09T14:55:37;5.68;;;3.50;;
31798;SDS011;18374;51.136;3.502;2022-09-09T14:58:05;6.90;;;3.00;;
31798;SDS011;18374;51.136;3.502;2022-09-09T15:00:33;9.40;;;3.17;;
31798;SDS011;18374;51.136;3.502;2022-09-09T15:03:01;6.32;;;3.28;;
31798;SDS011;18374;51.136;3.502;2022-09-09T15:05:28;7.55;;;2.38;;
31798;SDS011;18374;51.136;3.502;2022-09-09T15:08:01;7.95;;;2.90;;
31798;SDS011;18374;51.136;3.502;2022-09-09T15:10:30;7.90;;;3.00;;
31798;SDS011;18374;51.136;3.502;2022-09-09T15:12:58;6.72;;;3.17;;
31798;SDS011;18374;51.136;3.502;2022-09-09T15:15:26;4.13;;;2.72;;
31798;SDS011;18374;51.136;3.502;2022-09-09T15:17:55;9.32;;;3.17;;
31798;SDS011;18374;51.136;3.502;2022-09-09T15:20:23;5.82;;;3.08;;
31798;SDS011;18374;51.136;3.502;2022-09-09T15:22:51;4.07;;;2.47;;
31798;SDS011;18374;51.136;3.502;2022-09-09T15:25:19;6.20;;;2.50;;
31798;SDS011;18374;51.136;3.502;2022-09-09T15:27:46;4.57;;;2.38;;
31798;SDS011;18374;51.136;3.502;2022-09-09T15:30:14;6.43;;;2.70;;
31798;SDS011;18374;51.136;3.502;2022-09-09T15:32:42;4.55;;;2.72;;
31798;SDS011;18374;51.136;3.502;2022-09-09T15:35:09;6.10;;;3.08;;
31798;SDS011;18374;51.136;3.502;2022-09-09T15:37:38;6.95;;;2.70;;
31798;SDS011;18374;51.136;3.502;2022-09-09T15:40:06;7.10;;;3.10;;
31798;SDS011;18374;51.136;3.502;2022-09-09T15:42:34;6.18;;;2.38;;
31798;SDS011;18374;51.136;3.502;2022-09-09T15:45:02;6.82;;;3.22;;
31798;SDS011;18374;51.136;3.502;2022-09-09T15:47:31;4.47;;;2.58;;
31798;SDS011;18374;51.136;3.502;2022-09-09T15:50:00;3.40;;;2.53;;
31798;SDS011;18374;51.136;3.502;2022-09-09T15:52:28;5.07;;;2.95;;
31798;SDS011;18374;51.136;3.502;2022-09-09T15:54:55;7.45;;;3.20;;
31798;SDS011;18374;51.136;3.502;2022-09-09T15:57:23;4.57;;;3.10;;
31798;SDS011;18374;51.136;3.502;2022-09-09T15:59:51;5.60;;;3.65;;
31798;SDS011;18374;51.136;3.502;2022-09-09T16:02:18;4.85;;;3.50;;
31798;SDS011;18374;51.136;3.502;2022-09-09T16:04:46;4.60;;;3.35;;
31798;SDS011;18374;51.136;3.502;2022-09-09T16:07:14;7.22;;;4.00;;
31798;SDS011;18374;51.136;3.502;2022-09-09T16:09:42;11.65;;;4.50;;
31798;SDS011;18374;51.136;3.502;2022-09-09T16:12:10;7.38;;;4.10;;
31798;SDS011;18374;51.136;3.502;2022-09-09T16:14:39;10.38;;;4.32;;
31798;SDS011;18374;51.136;3.502;2022-09-09T16:17:07;7.78;;;4.60;;
31798;SDS011;18374;51.136;3.502;2022-09-09T16:19:35;5.72;;;4.10;;
31798;SDS011;18374;51.136;3.502;2022-09-09T16:22:04;9.95;;;4.03;;
31798;SDS011;18374;51.136;3.502;2022-09-09T16:24:33;5.68;;;3.90;;
31798;SDS011;18374;51.136;3.502;2022-09-09T16:27:01;7.47;;;3.15;;
31798;SDS011;18374;51.136;3.502;2022-09-09T16:29:28;6.22;;;2.85;;
31798;SDS011;18374;51.136;3.502;2022-09-09T16:31:56;7.28;;;2.80;;
31798;SDS011;18374;51.136;3.502;2022-09-09T16:34:39;8.98;;;2.75;;
31798;SDS011;18374;51.136;3.502;2022-09-09T16:37:07;6.40;;;3.90;;
31798;SDS011;18374;51.136;3.502;2022-09-09T16:39:35;9.23;;;4.93;;
31798;SDS011;18374;51.136;3.502;2022-09-09T16:42:02;6.55;;;4.93;;
31798;SDS011;18374;51.136;3.502;2022-09-09T16:44:33;9.45;;;5.32;;
31798;SDS011;18374;51.136;3.502;2022-09-09T16:47:01;9.15;;;5.45;;
31798;SDS011;18374;51.136;3.502;2022-09-09T16:49:28;9.93;;;4.85;;
31798;SDS011;18374;51.136;3.502;2022-09-09T16:51:57;8.88;;;4.63;;
31798;SDS011;18374;51.136;3.502;2022-09-09T16:54:26;12.38;;;6.20;;
31798;SDS011;18374;51.136;3.502;2022-09-09T16:56:54;9.52;;;5.13;;
31798;SDS011;18374;51.136;3.502;2022-09-09T16:59:21;8.25;;;5.45;;
31798;SDS011;18374;51.136;3.502;2022-09-09T17:01:50;8.45;;;4.55;;
31798;SDS011;18374;51.136;3.502;2022-09-09T17:04:20;7.15;;;5.13;;
31798;SDS011;18374;51.136;3.502;2022-09-09T17:06:52;9.32;;;5.35;;
31798;SDS011;18374;51.136;3.502;2022-09-09T17:09:22;11.40;;;5.85;;